Amma, West Virginia
Current Conditions -  °F | °C
As of 9:54 PM on Monday 26 Jan 2015 (Local Time) from KCRW Reporting Station
Light Snow Light Snow  
Wind Chill: 17°   Ceiling: 1200
Heat Index: 26°   Visibility: 9mi
Dew Point: 21°   Wind: 9mph
Humidity: 81%   Direction: 300°WNW
Pressure: 29.9"   Gusts: NA
Location:  38.57°N, 81.27°W
Report Text: KCRW 270254Z 30008KT 9SM -SN OVC012 M03/M06 A2990 RMK AO2 SLP134 P0000 60000 T10331061 51006
Loading
Personal Weather Stations






























Interactive Weather Map New forecast layout! Learn more

10-Day Weather Forecast

Advertisements
Track Severe Weather on mobile